Time;durP1;ratioP1;P1;durP2;ratioP2;P2;SDS_P1;SDS_P2;PMS_P1;PMS_P2;Temp;Humidity;BMP_temperature;BMP_pressure;BME280_temperature;BME280_humidity;BME280_pressure;Samples;Min_cycle;Max_cycle;Signal;HPM_P1;HPM_P2
2023/06/07 00:00:44;;;;;;;4.37;4.03;;;23.70;45.20;;;;;;5017947;28;20194;-51
2023/06/07 00:03:09;;;;;;;6.53;3.70;;;23.80;45.20;;;;;;5025260;28;20201;-50
2023/06/07 00:05:37;;;;;;;4.53;4.00;;;23.80;45.00;;;;;;5023551;28;20208;-50
2023/06/07 00:08:03;;;;;;;4.10;3.80;;;23.80;44.80;;;;;;5022322;28;20201;-51
2023/06/07 00:10:28;;;;;;;4.20;3.90;;;23.80;45.00;;;;;;5027662;28;20439;-52
2023/06/07 00:12:54;;;;;;;3.67;3.37;;;23.80;44.90;;;;;;5010664;28;20444;-48
2023/06/07 00:15:20;;;;;;;5.30;4.50;;;23.90;44.90;;;;;;5016582;28;20197;-52
2023/06/07 00:17:45;;;;;;;4.40;4.00;;;23.90;44.90;;;;;;5015866;28;20281;-47
2023/06/07 00:20:12;;;;;;;4.30;3.77;;;23.80;45.00;;;;;;5029224;28;20242;-50
2023/06/07 00:22:38;;;;;;;4.10;3.80;;;23.80;45.20;;;;;;5018652;28;20526;-51
2023/06/07 00:25:06;;;;;;;4.53;3.97;;;23.70;45.10;;;;;;5017040;28;20509;-48
2023/06/07 00:27:31;;;;;;;4.33;4.00;;;23.70;45.40;;;;;;5019492;28;20441;-51
2023/06/07 00:29:58;;;;;;;5.50;4.20;;;23.70;45.30;;;;;;5015833;28;20822;-53
2023/06/07 00:32:24;;;;;;;5.90;5.30;;;23.70;45.30;;;;;;5028770;28;20549;-48
2023/06/07 00:34:50;;;;;;;5.50;4.70;;;23.70;45.20;;;;;;5005582;28;20946;-52
2023/06/07 00:37:15;;;;;;;5.47;4.93;;;23.60;45.20;;;;;;5020512;28;20440;-52
2023/06/07 00:39:41;;;;;;;5.07;4.53;;;23.60;45.20;;;;;;5022698;28;20674;-51
2023/06/07 00:42:06;;;;;;;4.53;3.47;;;23.50;45.40;;;;;;5024327;28;20292;-48
2023/06/07 00:44:32;;;;;;;4.60;4.20;;;23.40;45.70;;;;;;5024181;28;20189;-52
2023/06/07 00:46:58;;;;;;;5.37;4.00;;;23.40;45.90;;;;;;5021786;28;20201;-53
2023/06/07 00:49:24;;;;;;;6.10;4.37;;;23.40;45.80;;;;;;5026275;28;20201;-52
2023/06/07 00:51:50;;;;;;;5.43;4.93;;;23.40;45.90;;;;;;5020605;28;20449;-51
2023/06/07 00:54:17;;;;;;;4.30;3.90;;;23.40;45.90;;;;;;5023498;28;20444;-52
2023/06/07 00:56:50;;;;;;;3.87;3.47;;;23.40;45.80;;;;;;5021170;28;20533;-52
2023/06/07 00:59:20;;;;;;;4.03;3.73;;;23.40;45.70;;;;;;5023745;28;21504;-51
2023/06/07 01:01:48;;;;;;;3.77;3.57;;;23.40;45.80;;;;;;5016574;28;20459;-52
2023/06/07 01:04:14;;;;;;;4.57;4.17;;;23.30;45.80;;;;;;5018283;28;20554;-52
2023/06/07 01:06:40;;;;;;;4.67;4.27;;;23.30;45.80;;;;;;5026498;28;20447;-50
2023/06/07 01:09:06;;;;;;;5.13;4.73;;;23.30;45.80;;;;;;5025340;28;20955;-49
2023/06/07 01:11:34;;;;;;;4.73;4.33;;;23.20;45.90;;;;;;5016781;28;20206;-48
2023/06/07 01:14:01;;;;;;;4.80;4.30;;;23.20;46.00;;;;;;5017663;28;20962;-51
2023/06/07 01:16:27;;;;;;;5.00;4.60;;;23.20;46.00;;;;;;5017967;28;20937;-50
2023/06/07 01:18:53;;;;;;;4.10;3.80;;;23.10;46.10;;;;;;5022943;28;20511;-49
2023/06/07 01:21:19;;;;;;;5.03;4.63;;;23.00;46.20;;;;;;5017474;28;20200;-51
2023/06/07 01:23:45;;;;;;;4.57;4.23;;;22.90;46.40;;;;;;5016703;28;20534;-53
2023/06/07 01:26:11;;;;;;;8.30;4.93;;;22.80;46.60;;;;;;5013378;28;20536;-51
2023/06/07 01:28:42;;;;;;;5.27;4.87;;;22.70;46.80;;;;;;5022686;28;20205;-50
2023/06/07 01:31:08;;;;;;;3.90;3.60;;;22.60;47.10;;;;;;5032561;28;20277;-52
2023/06/07 01:33:35;;;;;;;4.67;4.27;;;22.50;47.10;;;;;;5022761;28;20467;-52
2023/06/07 01:36:03;;;;;;;4.50;4.10;;;22.50;47.30;;;;;;5019306;28;20445;-51
2023/06/07 01:38:30;;;;;;;4.20;3.90;;;22.40;47.50;;;;;;5025916;28;20993;-53
2023/06/07 01:40:57;;;;;;;4.43;4.13;;;22.30;47.50;;;;;;5024136;28;20451;-51
2023/06/07 01:43:23;;;;;;;5.03;4.53;;;22.20;47.70;;;;;;5021665;28;20554;-51
2023/06/07 01:45:51;;;;;;;6.50;4.60;;;22.20;47.90;;;;;;5019643;28;20445;-52
2023/06/07 01:48:18;;;;;;;5.30;4.90;;;22.00;47.90;;;;;;5022853;28;20440;-52
2023/06/07 01:50:44;;;;;;;6.87;5.20;;;21.90;47.90;;;;;;5016361;28;20447;-49
2023/06/07 01:53:10;;;;;;;5.07;4.57;;;21.80;48.10;;;;;;5020196;28;20443;-45
2023/06/07 01:55:36;;;;;;;4.90;4.57;;;21.80;48.40;;;;;;5021580;28;20221;-47
2023/06/07 01:58:20;;;;;;;5.30;4.87;;;21.70;48.90;;;;;;5022141;28;20483;-49
2023/06/07 02:01:14;;;;;;;4.57;4.27;;;21.60;49.20;;;;;;5017989;28;20562;-47
2023/06/07 02:03:45;;;;;;;4.47;4.13;;;21.40;49.30;;;;;;5019048;28;20460;-47
2023/06/07 02:06:19;;;;;;;4.57;4.27;;;21.30;50.10;;;;;;5016391;28;20443;-47
2023/06/07 02:08:48;;;;;;;5.30;4.80;;;21.30;49.90;;;;;;5017114;28;20495;-47
2023/06/07 02:11:16;;;;;;;4.80;4.40;;;21.30;49.80;;;;;;5017078;28;20444;-55
2023/06/07 02:13:43;;;;;;;5.23;4.83;;;21.50;49.60;;;;;;5014144;28;20445;-51
2023/06/07 02:16:10;;;;;;;4.70;4.30;;;21.60;49.30;;;;;;5018926;28;20506;-48
2023/06/07 02:18:42;;;;;;;4.67;4.20;;;21.60;49.00;;;;;;5027509;28;20906;-50
2023/06/07 02:21:09;;;;;;;5.60;5.10;;;21.70;48.80;;;;;;5023346;28;20490;-51
2023/06/07 02:23:35;;;;;;;6.40;4.27;;;21.80;48.90;;;;;;5022216;28;20442;-48
2023/06/07 02:26:01;;;;;;;5.10;4.70;;;21.90;48.60;;;;;;5024432;28;20441;-50
2023/06/07 02:28:29;;;;;;;5.17;4.67;;;21.90;48.50;;;;;;5022242;28;20193;-49
2023/06/07 02:30:57;;;;;;;5.10;4.60;;;22.00;48.70;;;;;;5027102;28;20496;-50
2023/06/07 02:33:26;;;;;;;5.03;4.43;;;21.90;48.20;;;;;;5019971;28;20464;-52
2023/06/07 02:35:52;;;;;;;5.03;4.40;;;21.60;49.00;;;;;;5015449;28;20827;-50
2023/06/07 02:38:17;;;;;;;5.37;5.07;;;21.10;49.80;;;;;;5017300;28;20483;-50
2023/06/07 02:40:43;;;;;;;4.83;4.43;;;21.00;50.10;;;;;;5025910;28;20221;-51
2023/06/07 02:43:09;;;;;;;4.57;4.27;;;20.90;50.00;;;;;;5021320;28;20539;-48
2023/06/07 02:45:34;;;;;;;4.57;4.17;;;20.90;50.00;;;;;;5022498;28;20201;-49
2023/06/07 02:48:00;;;;;;;4.67;4.27;;;20.80;49.80;;;;;;5025029;28;20193;-48
2023/06/07 02:50:26;;;;;;;4.63;4.23;;;20.80;49.80;;;;;;5036695;28;20208;-49
2023/06/07 02:52:52;;;;;;;4.63;4.20;;;20.70;49.80;;;;;;5032723;28;20201;-47
2023/06/07 02:55:17;;;;;;;4.80;4.13;;;20.70;49.80;;;;;;5032746;28;20228;-48
2023/06/07 02:57:43;;;;;;;4.33;3.93;;;20.60;49.90;;;;;;5030409;28;20201;-48
2023/06/07 03:00:11;;;;;;;4.30;4.00;;;20.50;49.90;;;;;;5023985;28;20574;-48
2023/06/07 03:02:40;;;;;;;4.77;4.30;;;20.40;49.90;;;;;;5026793;28;20206;-51
2023/06/07 03:05:07;;;;;;;4.13;3.83;;;20.30;50.00;;;;;;5022421;28;20440;-49
2023/06/07 03:07:34;;;;;;;4.77;4.40;;;;;;;;;;5024172;28;20448;-49
2023/06/07 03:10:03;;;;;;;4.40;4.10;;;20.20;50.10;;;;;;5020728;28;20817;-49
2023/06/07 03:12:29;;;;;;;4.83;4.43;;;20.10;50.80;;;;;;5019020;28;20490;-49
2023/06/07 03:14:55;;;;;;;5.10;4.60;;;20.00;50.80;;;;;;5021157;28;20468;-47
2023/06/07 03:17:21;;;;;;;6.27;4.70;;;19.90;50.90;;;;;;5024759;28;20233;-47
2023/06/07 03:19:47;;;;;;;4.83;4.40;;;19.90;51.00;;;;;;5023428;28;20229;-49
2023/06/07 03:22:12;;;;;;;8.00;4.83;;;19.80;51.40;;;;;;5023527;28;20451;-51
2023/06/07 03:24:38;;;;;;;11.60;6.20;;;19.70;51.60;;;;;;5020882;28;20236;-47
2023/06/07 03:27:05;;;;;;;5.03;4.63;;;19.60;52.10;;;;;;5029713;28;20189;-51
2023/06/07 03:29:31;;;;;;;5.00;4.60;;;19.50;52.70;;;;;;5017656;28;20194;-51
2023/06/07 03:31:57;;;;;;;4.50;4.13;;;19.50;52.90;;;;;;5018174;28;20505;-46
2023/06/07 03:34:22;;;;;;;4.93;4.53;;;19.50;52.70;;;;;;5024205;28;20214;-50
2023/06/07 03:36:48;;;;;;;5.30;4.90;;;19.50;52.80;;;;;;5023160;28;20209;-46
2023/06/07 03:39:14;;;;;;;5.00;4.50;;;19.50;52.70;;;;;;5020385;28;20232;-51
2023/06/07 03:41:39;;;;;;;4.80;4.07;;;19.50;52.60;;;;;;5022804;28;20201;-50
2023/06/07 03:44:05;;;;;;;5.40;4.90;;;19.50;52.60;;;;;;5023951;28;20225;-47
2023/06/07 03:46:31;;;;;;;5.57;5.17;;;19.50;52.50;;;;;;5017306;28;20198;-50
2023/06/07 03:48:56;;;;;;;4.97;4.57;;;19.50;52.30;;;;;;5020898;28;20712;-47
2023/06/07 03:51:22;;;;;;;4.83;4.33;;;19.50;52.30;;;;;;5017130;28;20204;-46
2023/06/07 03:53:47;;;;;;;5.40;5.00;;;19.40;52.20;;;;;;5035349;28;20195;-46
2023/06/07 03:56:14;;;;;;;6.30;5.50;;;19.40;52.20;;;;;;5024478;28;20611;-48
2023/06/07 03:58:40;;;;;;;5.43;4.93;;;19.40;52.30;;;;;;5015470;28;20227;-46
2023/06/07 04:01:06;;;;;;;5.80;5.20;;;19.40;52.50;;;;;;5022054;28;20918;-49
2023/06/07 04:03:31;;;;;;;5.73;5.23;;;19.40;53.20;;;;;;5020585;28;20201;-46
2023/06/07 04:05:57;;;;;;;6.27;5.73;;;19.10;54.20;;;;;;5020826;28;20221;-48
2023/06/07 04:08:23;;;;;;;5.97;5.47;;;18.80;55.30;;;;;;5021777;28;20209;-46
2023/06/07 04:10:49;;;;;;;5.97;5.47;;;18.50;56.20;;;;;;5021747;28;20222;-46
2023/06/07 04:13:15;;;;;;;6.23;5.73;;;18.60;56.10;;;;;;5027202;28;20207;-46
2023/06/07 04:15:42;;;;;;;6.10;5.50;;;18.60;55.90;;;;;;5029525;28;20436;-46
2023/06/07 04:18:07;;;;;;;6.40;5.80;;;18.60;56.20;;;;;;5017678;28;20229;-46
2023/06/07 04:20:33;;;;;;;6.87;5.80;;;18.40;56.70;;;;;;5021047;28;20493;-46
2023/06/07 04:22:58;;;;;;;6.90;6.10;;;18.40;56.90;;;;;;5022344;28;20579;-47
2023/06/07 04:25:33;;;;;;;6.23;5.73;;;18.40;56.90;;;;;;5022565;28;20196;-49
2023/06/07 04:28:00;;;;;;;6.00;5.50;;;18.50;56.70;;;;;;5023931;28;20205;-46
2023/06/07 04:30:34;;;;;;;5.90;5.30;;;18.50;56.60;;;;;;5027130;28;21010;-47
2023/06/07 04:33:12;;;;;;;6.23;5.77;;;18.50;57.30;;;;;;5010877;28;20453;-47
2023/06/07 04:35:43;;;;;;;7.27;6.67;;;18.60;56.70;;;;;;5021399;28;20440;-46
2023/06/07 04:38:20;;;;;;;5.63;5.23;;;18.70;56.60;;;;;;5017061;28;21030;-48
2023/06/07 04:40:49;;;;;;;6.27;5.67;;;18.80;56.30;;;;;;5013885;28;20448;-49
2023/06/07 04:43:18;;;;;;;6.00;5.40;;;18.80;56.50;;;;;;5022205;28;20452;-48
2023/06/07 04:45:46;;;;;;;6.50;5.90;;;18.70;56.70;;;;;;5019194;28;20448;-48
2023/06/07 04:48:12;;;;;;;6.33;5.70;;;18.60;57.10;;;;;;5023081;28;20452;-48
2023/06/07 04:50:41;;;;;;;7.80;6.50;;;18.10;58.70;;;;;;5019313;28;20452;-48
2023/06/07 04:53:08;;;;;;;7.60;5.80;;;18.00;59.40;;;;;;5025491;28;20201;-47
2023/06/07 04:55:34;;;;;;;6.50;5.93;;;17.80;59.90;;;;;;5024651;28;20837;-48
2023/06/07 04:58:04;;;;;;;6.47;5.97;;;17.60;60.80;;;;;;5021684;28;20492;-46
2023/06/07 05:00:33;;;;;;;7.13;6.53;;;17.80;60.50;;;;;;5021558;28;20440;-47
2023/06/07 05:03:08;;;;;;;6.77;6.17;;;18.00;60.00;;;;;;5022728;28;20566;-47
2023/06/07 05:05:34;;;;;;;7.40;6.60;;;18.30;59.50;;;;;;5023451;28;20439;-46
2023/06/07 05:08:04;;;;;;;6.67;6.17;;;18.60;59.10;;;;;;5025143;28;20824;-47
2023/06/07 05:10:30;;;;;;;6.73;6.20;;;18.30;60.00;;;;;;5018537;28;20794;-47
2023/06/07 05:12:55;;;;;;;6.57;5.97;;;18.20;60.30;;;;;;5020828;28;20436;-47
2023/06/07 05:15:24;;;;;;;6.97;6.43;;;18.40;60.30;;;;;;5017074;28;20679;-47
2023/06/07 05:17:53;;;;;;;5.97;4.37;;;18.40;60.20;;;;;;5020155;28;20228;-47
2023/06/07 05:20:24;;;;;;;6.67;4.97;;;18.50;60.90;;;;;;5017490;28;20462;-47
2023/06/07 05:22:50;;;;;;;6.90;5.63;;;18.90;59.60;;;;;;5021242;28;20478;-48
2023/06/07 05:25:16;;;;;;;7.07;5.17;;;19.50;58.30;;;;;;5021133;28;20479;-47
2023/06/07 05:27:42;;;;;;;5.37;4.97;;;20.00;56.60;;;;;;5015617;28;20801;-48
2023/06/07 05:30:09;;;;;;;6.67;5.30;;;20.40;55.40;;;;;;5018527;28;20253;-48
2023/06/07 05:32:35;;;;;;;5.27;4.87;;;20.40;55.30;;;;;;5022119;28;20197;-48
2023/06/07 05:35:02;;;;;;;5.37;4.87;;;20.70;54.80;;;;;;5018244;28;20444;-47
2023/06/07 05:37:30;;;;;;;7.17;4.83;;;20.70;54.50;;;;;;5019391;28;20440;-48
2023/06/07 05:39:56;;;;;;;6.77;5.40;;;21.10;53.70;;;;;;5031728;28;20586;-49
2023/06/07 05:42:22;;;;;;;5.20;4.70;;;21.30;53.00;;;;;;5023408;28;20441;-50
2023/06/07 05:44:48;;;;;;;7.60;5.50;;;21.60;52.40;;;;;;5015389;28;20968;-48
2023/06/07 05:47:20;;;;;;;5.07;4.50;;;21.70;52.00;;;;;;5023493;28;20201;-47
2023/06/07 05:49:46;;;;;;;6.53;5.23;;;21.90;51.70;;;;;;5025052;28;20475;-51
2023/06/07 05:52:13;;;;;;;8.97;5.90;;;22.10;51.10;;;;;;5027396;28;20790;-45
2023/06/07 05:54:47;;;;;;;5.53;5.13;;;22.30;50.70;;;;;;5029126;28;20490;-50
2023/06/07 05:57:12;;;;;;;5.93;5.53;;;22.40;50.80;;;;;;5035088;28;20456;-51
2023/06/07 05:59:38;;;;;;;5.93;5.47;;;22.10;51.60;;;;;;5028575;28;20553;-47
2023/06/07 06:02:04;;;;;;;6.30;5.47;;;22.10;51.60;;;;;;5019783;28;20197;-46
2023/06/07 06:04:30;;;;;;;6.60;5.90;;;22.00;52.20;;;;;;5021034;28;20550;-47
2023/06/07 06:06:56;;;;;;;5.93;5.43;;;22.00;52.30;;;;;;5017163;28;20502;-52
2023/06/07 06:09:22;;;;;;;10.30;6.87;;;22.10;52.00;;;;;;5023181;28;20284;-47
2023/06/07 06:11:48;;;;;;;6.90;6.40;;;22.20;52.40;;;;;;5025989;28;20636;-48
2023/06/07 06:14:13;;;;;;;5.50;5.00;;;22.20;52.60;;;;;;5030283;28;20531;-49
2023/06/07 06:16:39;;;;;;;5.77;5.33;;;22.30;52.20;;;;;;5023188;28;20248;-51
2023/06/07 06:19:04;;;;;;;6.63;6.00;;;22.60;51.70;;;;;;5021936;28;20559;-47
2023/06/07 06:21:30;;;;;;;6.47;5.70;;;22.70;51.30;;;;;;5011940;28;20252;-47
2023/06/07 06:23:55;;;;;;;6.30;5.80;;;22.90;51.40;;;;;;5024138;28;20189;-50
2023/06/07 06:26:21;;;;;;;6.10;5.60;;;22.80;51.60;;;;;;5023573;28;20666;-49
2023/06/07 06:28:47;;;;;;;7.40;5.83;;;22.50;52.50;;;;;;5019688;28;20202;-51
2023/06/07 06:31:13;;;;;;;7.17;6.50;;;22.50;52.90;;;;;;5019099;28;20440;-49
2023/06/07 06:33:38;;;;;;;6.47;5.97;;;22.80;52.90;;;;;;5017148;28;20190;-50
2023/06/07 06:36:04;;;;;;;6.87;5.80;;;22.90;52.20;;;;;;5026282;28;20193;-49
2023/06/07 06:38:30;;;;;;;6.83;6.23;;;23.00;52.10;;;;;;5011726;28;20249;-50
2023/06/07 06:40:55;;;;;;;5.93;5.53;;;23.20;52.30;;;;;;5022600;28;20582;-50
2023/06/07 06:43:21;;;;;;;5.37;4.87;;;23.40;51.70;;;;;;5019904;28;20193;-48
2023/06/07 06:45:47;;;;;;;5.67;5.23;;;23.60;51.60;;;;;;5020230;28;20197;-49
2023/06/07 06:48:12;;;;;;;5.07;4.67;;;23.80;51.40;;;;;;5020693;28;20276;-52
2023/06/07 06:50:38;;;;;;;5.70;5.30;;;24.00;51.20;;;;;;5019806;28;20289;-53
2023/06/07 06:53:03;;;;;;;5.80;5.40;;;24.10;50.70;;;;;;5017396;28;20197;-50
2023/06/07 06:55:30;;;;;;;5.87;5.37;;;24.20;50.30;;;;;;5018246;28;20322;-47
2023/06/07 06:57:55;;;;;;;5.13;4.73;;;24.30;50.20;;;;;;5026119;28;20205;-50
2023/06/07 07:00:24;;;;;;;5.33;4.97;;;24.50;50.20;;;;;;5026755;28;21048;-51
2023/06/07 07:02:50;;;;;;;8.43;5.60;;;24.60;49.90;;;;;;5022780;28;20509;-50
2023/06/07 07:05:16;;;;;;;5.83;5.33;;;24.60;50.00;;;;;;5025839;28;20451;-50
2023/06/07 07:07:41;;;;;;;11.43;4.80;;;24.00;50.70;;;;;;5023875;28;20190;-49
2023/06/07 07:10:07;;;;;;;5.10;4.73;;;23.90;51.60;;;;;;5016131;28;20267;-52
2023/06/07 07:12:33;;;;;;;4.90;4.40;;;24.20;51.80;;;;;;5016644;28;20208;-51
2023/06/07 07:14:59;;;;;;;4.50;4.10;;;24.50;51.40;;;;;;5022028;28;20440;-53
2023/06/07 07:17:24;;;;;;;5.07;4.67;;;24.80;50.90;;;;;;5022516;28;20186;-51
2023/06/07 07:19:50;;;;;;;5.60;4.67;;;25.00;49.70;;;;;;5023208;28;20244;-52
2023/06/07 07:22:15;;;;;;;4.73;4.33;;;25.10;49.20;;;;;;5036180;28;20805;-47
2023/06/07 07:24:41;;;;;;;5.43;5.07;;;25.30;48.70;;;;;;5026228;28;20315;-48
2023/06/07 07:27:07;;;;;;;5.43;5.03;;;25.50;48.30;;;;;;5026289;28;20193;-53
2023/06/07 07:29:33;;;;;;;5.77;5.27;;;25.60;47.90;;;;;;5018017;28;20256;-52
2023/06/07 07:31:58;;;;;;;5.27;4.87;;;25.80;47.90;;;;;;5028354;28;20577;-49
2023/06/07 07:34:25;;;;;;;6.07;5.53;;;25.70;47.90;;;;;;5033297;28;20325;-53
2023/06/07 07:36:50;;;;;;;4.50;4.20;;;25.80;47.90;;;;;;5024628;28;20197;-51
2023/06/07 07:39:17;;;;;;;4.97;4.20;;;25.90;47.40;;;;;;5024728;28;20979;-51
2023/06/07 07:41:42;;;;;;;4.17;3.87;;;26.00;47.60;;;;;;5028054;28;20197;-50
2023/06/07 07:44:08;;;;;;;4.40;4.00;;;26.10;48.00;;;;;;5024896;28;20437;-52
2023/06/07 07:46:35;;;;;;;4.30;3.87;;;26.30;47.20;;;;;;5023363;28;20603;-50
2023/06/07 07:49:00;;;;;;;4.40;4.10;;;26.50;46.70;;;;;;5029297;28;20444;-50
2023/06/07 07:51:26;;;;;;;4.40;4.00;;;26.50;46.20;;;;;;5031743;28;20425;-55
2023/06/07 07:53:52;;;;;;;3.83;3.63;;;26.60;46.00;;;;;;5016903;28;20603;-52
2023/06/07 07:56:18;;;;;;;4.50;4.10;;;26.80;45.90;;;;;;5019957;28;20471;-51
2023/06/07 07:58:45;;;;;;;4.47;4.17;;;26.90;45.70;;;;;;5027312;28;20221;-48
2023/06/07 08:01:11;;;;;;;4.57;4.27;;;26.90;45.70;;;;;;5021291;28;20851;-48
2023/06/07 08:03:37;;;;;;;4.77;3.67;;;26.90;45.80;;;;;;5024975;28;20440;-48
2023/06/07 08:06:03;;;;;;;5.00;4.50;;;26.80;46.20;;;;;;5032557;28;20691;-48
2023/06/07 08:08:29;;;;;;;4.10;3.80;;;26.90;46.00;;;;;;5027414;28;20661;-48
2023/06/07 08:10:54;;;;;;;4.43;4.03;;;27.00;45.50;;;;;;5036310;28;20204;-52
2023/06/07 08:13:20;;;;;;;5.03;3.73;;;27.10;45.20;;;;;;5042590;28;20285;-48
2023/06/07 08:15:46;;;;;;;5.00;4.50;;;27.10;45.20;;;;;;5031774;28;20189;-52
2023/06/07 08:18:12;;;;;;;4.57;4.27;;;27.20;45.10;;;;;;5031122;28;20688;-49
2023/06/07 08:20:38;;;;;;;3.83;3.60;;;27.10;45.20;;;;;;5039141;28;20451;-48
2023/06/07 08:23:07;;;;;;;6.20;3.80;;;27.30;45.20;;;;;;5022997;28;20193;-51
2023/06/07 08:25:32;;;;;;;4.47;4.07;;;27.30;45.00;;;;;;5024180;28;20225;-47
2023/06/07 08:27:58;;;;;;;4.33;4.00;;;27.40;44.40;;;;;;5025360;28;20542;-52
2023/06/07 08:30:24;;;;;;;6.10;4.50;;;27.50;44.60;;;;;;5031193;28;20596;-49
2023/06/07 08:32:50;;;;;;;6.93;3.80;;;27.50;45.30;;;;;;5025250;28;20535;-52
2023/06/07 08:35:16;;;;;;;4.03;3.73;;;27.60;44.70;;;;;;5023246;28;20202;-52
2023/06/07 08:37:41;;;;;;;3.50;3.30;;;27.60;44.40;;;;;;5025359;28;20455;-52
2023/06/07 08:40:08;;;;;;;3.20;3.00;;;27.70;44.70;;;;;;5032485;28;20347;-52
2023/06/07 08:42:35;;;;;;;4.00;3.30;;;27.90;44.70;;;;;;5023360;28;20295;-51
2023/06/07 08:45:01;;;;;;;3.00;2.80;;;28.10;44.00;;;;;;5022668;28;20451;-48
2023/06/07 08:47:29;;;;;;;3.57;3.30;;;28.20;43.50;;;;;;5030629;28;20451;-55
2023/06/07 08:49:56;;;;;;;3.20;3.00;;;28.40;43.00;;;;;;5019197;28;20447;-47
2023/06/07 08:52:23;;;;;;;3.00;2.80;;;28.50;42.40;;;;;;5016729;28;20444;-49
2023/06/07 08:54:49;;;;;;;3.47;2.67;;;28.70;42.70;;;;;;5031695;28;20494;-50
2023/06/07 08:57:16;;;;;;;2.97;2.77;;;28.80;41.70;;;;;;5026437;28;20654;-47
2023/06/07 08:59:45;;;;;;;3.00;2.70;;;29.00;41.10;;;;;;5028909;28;20493;-47
2023/06/07 09:02:12;;;;;;;3.53;3.27;;;29.10;40.50;;;;;;5026164;28;20573;-49
2023/06/07 09:04:39;;;;;;;3.00;2.80;;;29.20;40.20;;;;;;5019805;28;20447;-48
2023/06/07 09:07:07;;;;;;;3.13;2.93;;;29.20;40.30;;;;;;5020948;28;20453;-48
2023/06/07 09:09:34;;;;;;;2.83;2.63;;;29.10;40.40;;;;;;5024393;28;20939;-49
2023/06/07 09:12:00;;;;;;;4.63;2.97;;;29.00;40.80;;;;;;5019569;28;20443;-48
2023/06/07 09:14:28;;;;;;;3.50;3.20;;;29.00;40.80;;;;;;5031508;28;20451;-51
2023/06/07 09:16:55;;;;;;;2.90;2.70;;;28.90;41.10;;;;;;5020860;28;21048;-48
2023/06/07 09:19:35;;;;;;;3.40;2.57;;;29.00;41.40;;;;;;5020626;28;20537;-52
2023/06/07 09:22:13;;;;;;;3.57;3.37;;;29.10;40.70;;;;;;5027813;28;20519;-51
2023/06/07 09:24:40;;;;;;;2.90;2.63;;;29.10;39.90;;;;;;5020101;28;20476;-47
2023/06/07 09:27:06;;;;;;;6.77;3.17;;;29.10;40.00;;;;;;5027250;28;20788;-48
2023/06/07 09:29:42;;;;;;;2.97;2.73;;;29.00;39.60;;;;;;5029609;28;20448;-48
2023/06/07 09:32:25;;;;;;;3.30;3.10;;;27.80;41.80;;;;;;5034279;28;20784;-53
2023/06/07 09:34:54;;;;;;;2.77;2.57;;;28.00;41.80;;;;;;5046617;28;20892;-51
2023/06/07 09:37:21;;;;;;;3.00;2.73;;;28.30;41.00;;;;;;5031576;28;20467;-48
2023/06/07 09:39:52;;;;;;;5.20;2.70;;;28.50;41.60;;;;;;5029562;28;20514;-48
2023/06/07 09:42:18;;;;;;;2.60;2.40;;;28.70;41.30;;;;;;5019364;28;20548;-49
2023/06/07 09:44:44;;;;;;;4.90;1.90;;;28.90;39.70;;;;;;5018720;28;20538;-51
2023/06/07 09:47:24;;;;;;;2.20;2.00;;;29.30;39.30;;;;;;5022300;28;20312;-51
2023/06/07 09:49:55;;;;;;;2.33;2.17;;;29.50;37.10;;;;;;5023194;28;20209;-49
2023/06/07 09:52:20;;;;;;;2.93;2.63;;;29.60;37.00;;;;;;5024492;28;21034;-49
2023/06/07 09:54:46;;;;;;;2.03;1.93;;;29.70;38.00;;;;;;5028790;28;20615;-49
2023/06/07 09:57:28;;;;;;;1.87;1.77;;;29.70;37.90;;;;;;5023020;28;20201;-50
2023/06/07 10:00:15;;;;;;;2.10;2.00;;;29.60;37.60;;;;;;5029839;28;20295;-49
2023/06/07 10:02:44;;;;;;;2.70;2.47;;;29.50;37.70;;;;;;5026858;28;20527;-50
2023/06/07 10:05:14;;;;;;;4.40;2.17;;;29.40;38.00;;;;;;5027026;28;20440;-49
2023/06/07 10:07:43;;;;;;;3.40;2.37;;;29.50;38.40;;;;;;5030100;28;20504;-49
2023/06/07 10:10:11;;;;;;;2.00;1.90;;;29.20;39.00;;;;;;5028223;28;20435;-50
2023/06/07 10:12:40;;;;;;;2.23;1.90;;;29.00;38.60;;;;;;5027100;28;20443;-51
2023/06/07 10:15:09;;;;;;;1.90;1.80;;;29.00;38.50;;;;;;5022135;28;20447;-49
2023/06/07 10:18:06;;;;;;;2.53;2.20;;;29.00;38.40;;;;;;5029693;28;20881;-48
2023/06/07 10:20:40;;;;;;;2.30;2.20;;;29.10;38.60;;;;;;5012354;28;20506;-48
2023/06/07 10:23:10;;;;;;;5.40;1.87;;;29.10;38.40;;;;;;5026803;28;20794;-48
2023/06/07 10:25:43;;;;;;;2.27;2.17;;;29.30;38.10;;;;;;5028605;28;20960;-49
2023/06/07 10:28:14;;;;;;;2.23;2.03;;;29.50;37.30;;;;;;5017782;28;20450;-49
2023/06/07 10:30:54;;;;;;;1.60;1.50;;;29.70;36.40;;;;;;5026286;28;20455;-50
2023/06/07 10:33:23;;;;;;;2.70;2.00;;;30.00;36.60;;;;;;5025020;28;20529;-49
2023/06/07 10:35:50;;;;;;;2.07;1.90;;;30.20;35.30;;;;;;5018449;28;20970;-49
2023/06/07 10:38:16;;;;;;;2.43;2.17;;;30.30;34.50;;;;;;5022533;28;21019;-53
2023/06/07 10:40:42;;;;;;;1.93;1.70;;;30.60;34.60;;;;;;5022377;28;20450;-48
2023/06/07 10:43:08;;;;;;;2.00;1.90;;;30.90;34.10;;;;;;5019753;28;20201;-48
2023/06/07 10:45:34;;;;;;;2.70;1.70;;;31.20;33.10;;;;;;5030586;28;20774;-48
2023/06/07 10:48:30;;;;;;;2.10;2.00;;;31.50;33.00;;;;;;5030598;28;20201;-47
2023/06/07 10:50:56;;;;;;;1.70;1.60;;;31.80;33.10;;;;;;5016281;28;20630;-53
2023/06/07 10:53:22;;;;;;;2.30;2.10;;;31.90;32.70;;;;;;5022470;28;20528;-47
2023/06/07 10:55:47;;;;;;;4.10;1.70;;;32.10;32.60;;;;;;5026259;28;20251;-50
2023/06/07 10:58:29;;;;;;;1.70;1.60;;;32.10;33.60;;;;;;5030744;28;20262;-47
2023/06/07 11:00:56;;;;;;;1.83;1.73;;;32.10;33.60;;;;;;5032363;28;20258;-50
2023/06/07 11:03:25;;;;;;;2.20;2.00;;;32.30;33.30;;;;;;5020639;28;20506;-47
2023/06/07 11:06:01;;;;;;;1.77;1.67;;;32.50;33.80;;;;;;5045968;28;20455;-47
2023/06/07 11:08:31;;;;;;;1.67;1.57;;;32.80;32.70;;;;;;5029967;28;20978;-50
2023/06/07 11:11:01;;;;;;;1.50;1.40;;;33.00;31.90;;;;;;5033836;28;20435;-47
2023/06/07 11:13:52;;;;;;;1.60;1.50;;;33.30;31.50;;;;;;5021311;28;20456;-49
2023/06/07 11:16:24;;;;;;;32.80;4.77;;;33.50;31.20;;;;;;5026250;28;20497;-47
2023/06/07 11:19:18;;;;;;;1.87;1.77;;;33.60;31.40;;;;;;5028335;28;20487;-47
2023/06/07 11:22:04;;;;;;;1.60;1.50;;;33.80;31.60;;;;;;5024560;28;20468;-49
2023/06/07 11:24:30;;;;;;;1.77;1.53;;;34.00;30.00;;;;;;5030988;28;20539;-48
2023/06/07 11:26:56;;;;;;;1.83;1.50;;;34.10;29.50;;;;;;5024652;28;20443;-49
2023/06/07 11:29:22;;;;;;;1.87;1.73;;;34.10;29.80;;;;;;5021564;28;20436;-47
2023/06/07 11:31:55;;;;;;;3.57;1.93;;;34.00;29.70;;;;;;5030693;28;20466;-48
2023/06/07 11:34:21;;;;;;;5.60;5.00;;;33.80;30.00;;;;;;5025536;28;20540;-47
2023/06/07 11:36:46;;;;;;;4.07;3.77;;;33.50;30.30;;;;;;5032497;28;21016;-47
2023/06/07 11:39:16;;;;;;;2.70;2.50;;;33.40;30.50;;;;;;5027472;28;20526;-47
2023/06/07 11:41:43;;;;;;;2.40;2.20;;;33.20;30.60;;;;;;5024811;28;20665;-49
2023/06/07 11:44:09;;;;;;;1.80;1.70;;;33.10;30.60;;;;;;5035295;28;20454;-48
2023/06/07 11:46:36;;;;;;;1.63;1.53;;;33.10;30.50;;;;;;5029784;28;20448;-49
2023/06/07 11:49:09;;;;;;;1.80;1.70;;;33.10;30.20;;;;;;5033252;28;20470;-50
2023/06/07 11:51:35;;;;;;;1.70;1.60;;;33.00;30.50;;;;;;5025986;28;20452;-47
2023/06/07 11:54:01;;;;;;;2.13;1.93;;;33.10;30.20;;;;;;5023031;28;20444;-50
2023/06/07 11:56:27;;;;;;;1.97;1.87;;;33.30;30.50;;;;;;5027181;28;20601;-50
2023/06/07 11:58:54;;;;;;;1.80;1.70;;;33.30;30.20;;;;;;5023936;28;20225;-48
2023/06/07 12:01:20;;;;;;;2.27;1.80;;;33.30;29.30;;;;;;5026333;28;20447;-47
2023/06/07 12:03:47;;;;;;;1.93;1.83;;;33.40;30.20;;;;;;5027629;28;20433;-47
2023/06/07 12:06:13;;;;;;;1.90;1.80;;;32.90;32.00;;;;;;5027009;28;20448;-48
2023/06/07 12:08:38;;;;;;;2.70;2.43;;;33.00;31.00;;;;;;5021498;28;20513;-50
2023/06/07 12:11:07;;;;;;;2.13;1.77;;;33.30;30.80;;;;;;5030356;28;20198;-48
2023/06/07 12:13:40;;;;;;;4.50;1.83;;;33.10;30.30;;;;;;5026133;28;20213;-47
2023/06/07 12:16:07;;;;;;;1.70;1.60;;;33.30;30.50;;;;;;5030375;28;20811;-47
2023/06/07 12:18:38;;;;;;;1.70;1.60;;;33.20;29.90;;;;;;5027921;28;20503;-47
2023/06/07 12:21:08;;;;;;;1.90;1.80;;;33.20;30.10;;;;;;5029316;28;20466;-48
2023/06/07 12:23:35;;;;;;;2.27;1.70;;;33.20;29.80;;;;;;5027764;28;20448;-50
2023/06/07 12:26:14;;;;;;;2.90;2.17;;;33.30;29.50;;;;;;5028711;28;20420;-48
2023/06/07 12:28:42;;;;;;;6.93;2.10;;;33.50;30.40;;;;;;5024267;28;20550;-48
2023/06/07 12:31:23;;;;;;;1.70;1.60;;;33.60;30.80;;;;;;5020735;28;20899;-48
2023/06/07 12:33:58;;;;;;;2.80;1.90;;;33.70;30.50;;;;;;5025584;28;20530;-49
2023/06/07 12:36:28;;;;;;;2.00;1.90;;;33.80;30.60;;;;;;5022084;28;20458;-49
2023/06/07 12:38:54;;;;;;;2.63;1.60;;;34.00;29.90;;;;;;5028772;28;20487;-50
2023/06/07 12:41:23;;;;;;;4.67;2.73;;;34.10;29.40;;;;;;5026814;28;20440;-54
2023/06/07 12:43:49;;;;;;;9.93;1.87;;;34.30;28.80;;;;;;5030317;28;20276;-49
2023/06/07 12:46:14;;;;;;;2.10;1.57;;;34.50;28.80;;;;;;5027332;28;20819;-48
2023/06/07 12:48:43;;;;;;;2.53;2.10;;;34.60;28.30;;;;;;5021235;28;20444;-48
2023/06/07 12:51:09;;;;;;;1.90;1.80;;;34.90;28.40;;;;;;5014625;28;20569;-48